createdAt,value
2018-06-25T03:01:00.834Z,97.13
2018-06-25T03:02:01.280Z,97.13
2018-06-25T03:04:34.524Z,97.33
2018-06-25T03:05:35.333Z,97.13
2018-06-25T03:06:33.454Z,97.33
2018-06-25T03:07:33.675Z,97.33
2018-06-25T03:08:33.770Z,97.04
2018-06-25T03:09:33.970Z,96.84
2018-06-25T03:10:34.103Z,97.04
2018-06-25T03:11:34.284Z,97.80
2018-06-25T03:12:34.443Z,96.94
2018-06-25T03:13:34.701Z,96.94
2018-06-25T03:14:34.819Z,97.23
2018-06-25T03:15:34.985Z,96.84
2018-06-25T03:16:35.075Z,96.75
2018-06-25T03:17:35.242Z,96.75
2018-06-25T03:18:35.396Z,96.66
2018-06-25T03:19:35.558Z,96.84
2018-06-25T03:20:35.745Z,96.75
2018-06-25T03:21:36.703Z,96.75
2018-06-25T03:22:36.098Z,97.13
2018-06-25T03:23:36.235Z,96.94
2018-06-25T03:24:36.442Z,96.56
2018-06-25T03:25:36.623Z,97.23
2018-06-25T03:26:36.775Z,97.52
2018-06-25T03:27:36.989Z,97.33
2018-06-25T03:28:37.137Z,96.75
2018-06-25T03:29:37.264Z,96.75
2018-06-25T03:30:37.466Z,96.37
2018-06-25T03:31:37.615Z,96.75
2018-06-25T03:32:37.825Z,96.94
2018-06-25T03:33:37.935Z,96.75
2018-06-25T03:34:38.141Z,96.75
2018-06-25T03:35:38.307Z,96.94
2018-06-25T03:36:38.459Z,96.75
2018-06-25T03:37:38.666Z,96.75
2018-06-25T03:38:38.826Z,96.56
2018-06-25T03:39:38.904Z,96.47
2018-06-25T03:40:39.134Z,96.94
2018-06-25T03:41:39.333Z,96.84
2018-06-25T03:42:39.488Z,96.56
2018-06-25T03:43:39.629Z,96.56
2018-06-25T03:44:39.838Z,96.84
2018-06-25T03:45:39.933Z,96.56
2018-06-25T03:46:40.141Z,97.13
2018-06-25T03:47:40.202Z,96.84
2018-06-25T03:48:40.364Z,96.94
2018-06-25T03:49:40.550Z,97.13
2018-06-25T03:50:40.716Z,97.13
2018-06-25T03:51:40.983Z,97.33
2018-06-25T03:52:41.102Z,97.13
2018-06-25T03:53:41.317Z,97.23
2018-06-25T03:54:41.466Z,97.23
2018-06-25T03:55:41.576Z,97.04
2018-06-25T03:56:41.781Z,97.13
2018-06-25T03:57:41.969Z,96.94
2018-06-25T03:58:42.173Z,97.33
2018-06-25T03:59:42.359Z,97.33
2018-06-25T04:00:42.699Z,96.94
2018-06-25T04:01:42.728Z,97.71
2018-06-25T04:02:42.868Z,97.61
2018-06-25T04:03:42.933Z,97.71
2018-06-25T04:04:43.172Z,97.13
2018-06-25T04:05:43.334Z,97.13
2018-06-25T04:06:43.572Z,96.75
2018-06-25T04:07:43.686Z,97.13
2018-06-25T04:08:43.860Z,97.04
2018-06-25T04:09:44.072Z,96.75
2018-06-25T04:10:44.105Z,96.56
2018-06-25T04:11:44.342Z,96.84
2018-06-25T04:12:44.546Z,97.23
2018-06-25T04:13:44.629Z,96.66
2018-06-25T04:14:44.778Z,97.23
2018-06-25T04:15:44.984Z,97.90
2018-06-25T04:16:45.166Z,97.90
2018-06-25T04:17:45.380Z,97.33
2018-06-25T04:18:45.550Z,97.80
2018-06-25T04:19:45.687Z,97.90
2018-06-25T04:20:45.912Z,97.71
2018-06-25T04:21:45.983Z,97.13
2018-06-25T04:22:46.160Z,96.75
2018-06-25T04:23:46.299Z,96.80
2018-06-25T04:24:46.530Z,96.70
2018-06-25T04:25:46.654Z,96.56
2018-06-25T04:26:46.901Z,96.84
2018-06-25T04:27:47.029Z,96.80
2018-06-25T04:28:47.204Z,97.08
2018-06-25T04:29:47.398Z,96.51
2018-06-25T04:30:47.626Z,95.84
2018-06-25T04:31:47.654Z,95.46
2018-06-25T04:32:47.858Z,95.65
2018-06-25T04:33:48.032Z,95.94
2018-06-25T04:34:48.149Z,96.13
2018-06-25T04:35:48.350Z,95.27
2018-06-25T04:36:48.474Z,95.75
2018-06-25T04:37:48.653Z,95.46
2018-06-25T04:38:48.914Z,95.56
2018-06-25T04:39:48.981Z,95.56
2018-06-25T04:40:49.150Z,95.75
2018-06-25T04:41:49.350Z,95.94
2018-06-25T04:42:49.584Z,95.75
2018-06-25T04:43:49.663Z,95.94
2018-06-25T04:44:49.872Z,96.42
2018-06-25T04:45:50.167Z,96.32
2018-06-25T04:46:55.673Z,96.22
2018-06-25T04:51:16.010Z,96.32
2018-06-25T04:52:16.232Z,95.46
2018-06-25T04:55:18.147Z,95.03
2018-06-25T04:55:19.170Z,95.07
2018-06-25T04:56:18.414Z,94.70
2018-06-25T04:57:18.575Z,95.31
2018-06-25T04:58:18.610Z,95.36
2018-06-25T04:59:19.097Z,95.12
2018-06-25T05:00:18.935Z,95.22
2018-06-25T05:01:19.627Z,94.26
2018-06-25T05:02:19.397Z,94.36
2018-06-25T05:03:19.505Z,94.74
2018-06-25T05:04:19.822Z,95.12
2018-06-25T05:06:20.134Z,94.45
2018-06-25T05:07:20.694Z,94.07
2018-06-25T05:08:20.456Z,94.65
2018-06-25T05:09:20.577Z,93.79
2018-06-25T05:10:20.726Z,93.12
2018-06-25T05:11:20.910Z,93.21
2018-06-25T05:12:21.093Z,93.02
2018-06-25T05:13:21.364Z,92.44
2018-06-25T05:14:21.497Z,92.16
2018-06-25T05:15:21.656Z,92.44
2018-06-25T05:16:21.770Z,91.87
2018-06-25T05:17:21.971Z,91.77
2018-06-25T05:18:22.173Z,92.11
2018-06-25T05:19:22.245Z,91.72
2018-06-25T05:20:22.389Z,91.34
2018-06-25T05:21:22.822Z,91.44
2018-06-25T05:22:22.773Z,92.01
2018-06-25T05:23:23.054Z,91.82
2018-06-25T05:24:23.185Z,91.44
2018-06-25T05:25:23.311Z,90.29
2018-06-25T05:26:23.543Z,89.90
2018-06-25T05:27:23.741Z,90.09
2018-06-25T05:28:23.864Z,89.72
2018-06-25T05:29:24.152Z,90.09
2018-06-25T05:30:24.251Z,90.00
2018-06-25T05:31:24.460Z,89.81
2018-06-25T05:32:24.566Z,89.72
2018-06-25T05:33:24.735Z,89.81
2018-06-25T05:34:24.839Z,89.72
2018-06-25T05:35:25.048Z,89.14
2018-06-25T05:36:25.299Z,88.85
2018-06-25T05:37:25.456Z,88.47
2018-06-25T05:38:25.591Z,87.90
2018-06-25T05:39:25.874Z,86.74
2018-06-25T05:40:25.961Z,87.51
2018-06-25T05:41:26.115Z,88.47
2018-06-25T05:42:26.308Z,89.43
2018-06-25T05:43:26.438Z,89.52
2018-06-25T05:44:26.533Z,89.90
2018-06-25T05:45:26.735Z,89.62
2018-06-25T05:46:26.918Z,88.76
2018-06-25T05:47:27.055Z,89.04
2018-06-25T05:48:27.323Z,90.09
2018-06-25T05:49:27.456Z,89.72
2018-06-25T05:50:27.601Z,89.33
2018-06-25T05:51:27.770Z,89.76
2018-06-25T05:52:27.972Z,88.32
2018-06-25T05:53:31.140Z,87.65
2018-06-25T05:54:28.387Z,86.41
2018-06-25T05:55:28.604Z,86.12
2018-06-25T05:56:30.166Z,86.21
2018-06-25T06:01:36.713Z,86.12
2018-06-25T06:02:39.626Z,85.35
2018-06-25T06:03:37.394Z,85.64
2018-06-25T06:04:35.986Z,85.64
2018-06-25T06:05:36.103Z,85.93
2018-06-25T06:06:36.332Z,84.88
2018-06-25T06:07:36.371Z,85.83
2018-06-25T06:08:36.603Z,85.74
2018-06-25T06:09:36.802Z,85.35
2018-06-25T06:10:36.929Z,85.45
2018-06-25T06:11:37.151Z,84.39
2018-06-25T06:12:37.304Z,84.49
2018-06-25T06:13:37.421Z,85.06
2018-06-25T06:14:37.773Z,84.97
2018-06-25T06:15:37.656Z,85.64
2018-06-25T06:16:37.911Z,86.02
2018-06-25T06:17:38.019Z,84.78
2018-06-25T06:18:38.273Z,84.97
2018-06-25T06:19:38.493Z,84.78
2018-06-25T06:20:38.598Z,85.45
2018-06-25T06:21:38.788Z,85.16
2018-06-25T06:22:38.962Z,85.16
2018-06-25T06:23:39.075Z,85.11
2018-06-25T06:24:39.340Z,85.16
2018-06-25T06:25:40.247Z,84.82
2018-06-25T06:26:39.553Z,84.91
2018-06-25T06:27:39.957Z,84.91
2018-06-25T06:28:40.759Z,83.29
2018-06-25T06:29:41.257Z,84.05
2018-06-25T06:30:40.509Z,84.05
2018-06-25T06:31:40.429Z,84.34
2018-06-25T06:32:40.666Z,83.33
2018-06-25T06:33:40.776Z,83.14
2018-06-25T06:34:41.095Z,82.37
2018-06-25T06:35:51.698Z,83.14
2018-06-25T06:38:47.173Z,81.51
2018-06-25T06:39:44.604Z,82.18
2018-06-25T06:40:42.614Z,81.89
2018-06-25T06:41:42.333Z,82.08
2018-06-25T06:42:55.179Z,81.18
2018-06-25T06:43:51.643Z,81.08
2018-06-25T06:44:43.365Z,82.27
2018-06-25T06:45:43.016Z,81.51
2018-06-25T06:46:47.562Z,82.08
2018-06-25T06:47:53.727Z,81.22
2018-06-25T06:48:45.228Z,80.93
2018-06-25T06:49:43.867Z,81.89
2018-06-25T06:50:43.729Z,80.83
2018-06-25T06:51:43.974Z,80.26
2018-06-25T06:52:44.060Z,80.30
2018-06-25T06:53:44.243Z,80.30
2018-06-25T06:54:44.375Z,79.24
2018-06-25T06:55:44.588Z,80.58
2018-06-25T06:56:44.794Z,80.40
2018-06-25T06:57:44.999Z,78.67
2018-06-25T06:58:45.946Z,79.82
2018-06-25T06:59:45.234Z,80.11
2018-06-25T07:00:45.432Z,78.96
2018-06-25T07:01:45.638Z,79.67
2018-06-25T07:02:45.807Z,78.86
2018-06-25T07:03:45.902Z,78.00
2018-06-25T07:04:46.158Z,78.57
2018-06-25T07:05:46.322Z,78.61
2018-06-25T07:06:46.459Z,79.09
2018-06-25T07:07:46.573Z,78.23
2018-06-25T07:08:46.825Z,77.51
2018-06-25T07:09:47.034Z,77.13
2018-06-25T07:10:47.213Z,76.84
2018-06-25T07:11:47.366Z,77.61
2018-06-25T07:12:47.492Z,77.90
2018-06-25T07:13:47.700Z,79.34
2018-06-25T07:14:47.957Z,79.44
2018-06-25T07:15:48.064Z,80.26
2018-06-25T07:16:48.198Z,80.07
2018-06-25T07:17:48.365Z,79.88
2018-06-25T07:18:48.705Z,79.78
2018-06-25T07:19:48.825Z,79.39
2018-06-25T07:20:49.026Z,80.16
2018-06-25T07:21:49.136Z,80.07
2018-06-25T07:22:49.296Z,79.88
2018-06-25T07:23:49.512Z,80.64
2018-06-25T07:24:49.697Z,79.68
2018-06-25T07:25:49.858Z,80.35
2018-06-25T07:26:49.948Z,80.35
2018-06-25T07:27:50.131Z,79.72
2018-06-25T07:28:50.380Z,79.82
2018-06-25T07:29:50.520Z,80.97
2018-06-25T07:30:50.722Z,80.68
2018-06-25T07:31:50.934Z,80.49
2018-06-25T07:32:51.103Z,79.72
2018-06-25T07:33:51.195Z,80.20
2018-06-25T07:34:51.440Z,78.77
2018-06-25T07:35:51.481Z,79.63
2018-06-25T07:36:51.703Z,78.47
2018-06-25T07:37:51.936Z,79.91
2018-06-25T07:38:52.065Z,79.05
2018-06-25T07:39:52.275Z,79.24
2018-06-25T07:40:53.405Z,78.19
2018-06-25T07:41:52.891Z,78.77
2018-06-25T07:42:52.713Z,78.00
2018-06-25T07:43:53.004Z,77.61
2018-06-25T07:44:53.144Z,78.19
2018-06-25T07:45:53.300Z,78.19
2018-06-25T07:46:53.445Z,78.72
2018-06-25T07:47:53.660Z,79.44
2018-06-25T07:48:53.793Z,79.14
2018-06-25T07:49:53.985Z,79.63
2018-06-25T07:50:54.286Z,79.34
2018-06-25T07:51:54.348Z,80.07
2018-06-25T07:52:54.607Z,80.11
2018-06-25T07:53:54.836Z,80.64
2018-06-25T07:54:54.992Z,80.64
2018-06-25T07:55:55.167Z,80.55
2018-06-25T07:56:55.343Z,80.35
2018-06-25T07:57:55.480Z,79.68
2018-06-25T07:58:55.585Z,79.68
2018-06-25T07:59:55.837Z,80.16
2018-06-25T08:00:56.022Z,79.88
2018-06-25T08:01:56.094Z,79.53
2018-06-25T08:02:56.300Z,79.63
2018-06-25T08:03:56.444Z,80.30
2018-06-25T08:04:56.637Z,78.86
2018-06-25T08:05:56.827Z,78.57
2018-06-25T08:06:57.038Z,79.05
2018-06-25T08:07:57.211Z,79.67
2018-06-25T08:08:57.355Z,78.03
2018-06-25T08:09:57.550Z,76.69
2018-06-25T08:10:57.651Z,76.12
2018-06-25T08:11:57.867Z,75.92
2018-06-25T08:12:58.051Z,76.44
2018-06-25T08:13:58.905Z,75.10
2018-06-25T08:14:58.451Z,73.37
2018-06-25T08:15:58.707Z,72.12
2018-06-25T08:16:58.791Z,71.45
2018-06-25T08:17:59.005Z,70.29
2018-06-25T08:18:59.089Z,70.68
2018-06-25T08:19:59.441Z,71.35
2018-06-25T08:20:59.514Z,72.22
2018-06-25T08:21:59.747Z,71.83
2018-06-25T08:23:00.013Z,72.02
2018-06-25T08:24:00.165Z,72.02
2018-06-25T08:25:00.270Z,71.93
2018-06-25T08:26:00.418Z,71.25
2018-06-25T08:27:00.572Z,70.87
2018-06-25T08:28:00.841Z,71.35
2018-06-25T08:29:00.978Z,71.16
2018-06-25T08:30:01.403Z,70.97
2018-06-25T08:31:01.320Z,70.90
2018-06-25T08:32:01.419Z,68.89
2018-06-25T08:33:01.594Z,69.56
2018-06-25T08:34:01.779Z,69.85
2018-06-25T08:35:02.115Z,71.10
2018-06-25T08:36:02.207Z,70.04
2018-06-25T08:37:02.330Z,71.16
2018-06-25T08:38:02.464Z,72.41
2018-06-25T08:39:02.582Z,73.08
2018-06-25T08:40:02.808Z,72.37
2018-06-25T08:41:02.992Z,72.18
2018-06-25T08:42:03.113Z,72.85
2018-06-25T08:43:03.405Z,74.10
2018-06-25T08:44:03.534Z,73.52
2018-06-25T08:45:03.675Z,73.04
2018-06-25T08:46:03.874Z,72.75
2018-06-25T08:47:04.084Z,72.31
2018-06-25T08:48:04.152Z,71.83
2018-06-25T08:49:04.350Z,71.48
2018-06-25T08:50:04.600Z,70.62
2018-06-25T08:51:04.706Z,69.79
2018-06-25T08:52:05.013Z,69.12
2018-06-25T08:53:07.159Z,68.48
2018-06-25T08:54:05.233Z,68.32
2018-06-25T08:55:05.509Z,68.22
2018-06-25T08:56:10.859Z,67.19
2018-06-25T08:57:05.817Z,64.73
2018-06-25T08:58:06.064Z,64.53
2018-06-25T08:59:06.181Z,64.18
2018-06-25T09:00:06.286Z,63.21
2018-06-25T09:01:06.521Z,63.21
2018-06-25T09:02:06.738Z,62.93
2018-06-25T09:03:06.927Z,61.96
2018-06-25T09:04:06.991Z,61.45
2018-06-25T09:05:07.231Z,61.16
2018-06-25T09:06:07.349Z,62.41
2018-06-25T09:07:07.568Z,62.87
2018-06-25T09:08:07.702Z,62.96
2018-06-25T09:09:07.899Z,63.64
2018-06-25T09:10:08.126Z,64.12
2018-06-25T09:11:08.234Z,64.50
2018-06-25T09:12:08.463Z,64.69
2018-06-25T09:13:08.610Z,65.14
2018-06-25T09:14:08.715Z,64.86
2018-06-25T09:15:08.964Z,64.95
2018-06-25T09:16:09.112Z,65.53
2018-06-25T09:17:09.256Z,65.08
2018-06-25T09:18:09.400Z,65.27
2018-06-25T09:19:09.613Z,65.46
2018-06-25T09:20:09.829Z,63.60
2018-06-25T09:21:09.897Z,63.22
2018-06-25T09:22:10.052Z,64.56
2018-06-25T09:23:10.291Z,62.29
2018-06-25T09:24:10.456Z,62.09
2018-06-25T09:25:10.602Z,61.87
2018-06-25T09:26:10.745Z,63.25
2018-06-25T09:27:10.957Z,63.70
2018-06-25T09:28:11.169Z,63.99
2018-06-25T09:29:18.188Z,63.99
2018-06-25T09:30:11.515Z,65.24
2018-06-25T09:31:11.754Z,64.76
2018-06-25T09:32:11.948Z,64.86
2018-06-25T09:33:12.029Z,64.50
2018-06-25T09:34:12.176Z,64.79
2018-06-25T09:35:12.468Z,65.20
2018-06-25T09:36:12.555Z,63.85
2018-06-25T09:37:12.767Z,60.80
2018-06-25T09:38:12.999Z,61.96
2018-06-25T09:39:12.999Z,62.25
2018-06-25T09:40:13.148Z,61.77
2018-06-25T09:41:13.430Z,61.19
2018-06-25T09:42:13.565Z,60.32
2018-06-25T09:43:13.796Z,60.52
2018-06-25T09:44:14.081Z,61.16
2018-06-25T09:45:14.218Z,61.45
2018-06-25T09:46:14.332Z,61.35
2018-06-25T09:47:14.584Z,61.35
2018-06-25T09:48:14.792Z,60.77
2018-06-25T09:49:15.061Z,61.19
2018-06-25T09:50:15.180Z,61.77
2018-06-25T09:51:15.393Z,60.83
2018-06-25T09:52:15.641Z,60.48
2018-06-25T09:53:15.646Z,59.87
2018-06-25T09:54:15.869Z,60.19
2018-06-25T09:55:15.987Z,59.00
2018-06-25T09:56:16.291Z,59.87
2018-06-25T09:57:16.356Z,58.81
2018-06-25T09:58:16.491Z,60.61
2018-06-25T09:59:16.701Z,60.03
2018-06-25T10:00:16.830Z,60.32
2018-06-25T10:01:16.976Z,59.84
2018-06-25T10:02:17.229Z,60.77
2018-06-25T10:03:17.356Z,60.58
2018-06-25T10:04:17.538Z,62.22
2018-06-25T10:05:17.620Z,62.41
2018-06-25T10:06:17.862Z,62.06
2018-06-25T10:07:18.014Z,61.87
2018-06-25T10:08:18.147Z,61.90
2018-06-25T10:09:18.360Z,59.90
2018-06-25T10:10:18.490Z,58.55
2018-06-25T10:11:18.752Z,58.17
2018-06-25T10:12:18.907Z,59.25
2018-06-25T10:13:19.208Z,59.45
2018-06-25T10:14:19.313Z,57.68
2018-06-25T10:15:19.503Z,56.94
2018-06-25T10:16:19.690Z,55.68
2018-06-25T10:17:20.001Z,55.20
2018-06-25T10:18:20.036Z,56.36
2018-06-25T10:19:20.178Z,56.74
2018-06-25T10:20:20.296Z,56.74
2018-06-25T10:21:20.524Z,57.23
2018-06-25T10:22:20.737Z,57.04
2018-06-25T10:23:20.868Z,55.78
2018-06-25T10:24:21.063Z,56.36
2018-06-25T10:25:21.191Z,56.52
2018-06-25T10:26:21.331Z,57.23
2018-06-25T10:27:21.563Z,56.32
2018-06-25T10:28:21.741Z,54.44
2018-06-25T10:29:21.990Z,53.72
2018-06-25T10:30:22.092Z,51.35
2018-06-25T10:31:22.278Z,49.92
2018-06-25T10:32:22.462Z,48.93
2018-06-25T10:33:22.624Z,49.29
2018-06-25T10:34:22.854Z,50.62
2018-06-25T10:35:22.998Z,51.95
2018-06-25T10:36:23.156Z,52.80
2018-06-25T10:37:23.332Z,54.03
2018-06-25T10:38:23.509Z,54.51
2018-06-25T10:39:23.690Z,55.26
2018-06-25T10:40:23.879Z,55.55
2018-06-25T10:41:24.008Z,56.20
2018-06-25T10:42:24.234Z,55.35
2018-06-25T10:43:24.339Z,56.03
2018-06-25T10:44:24.461Z,55.26
2018-06-25T10:45:24.716Z,55.35
2018-06-25T10:46:24.805Z,55.19
2018-06-25T10:47:25.016Z,53.53
2018-06-25T10:48:25.236Z,51.62
2018-06-25T10:49:25.455Z,51.42
2018-06-25T10:50:25.627Z,52.56
2018-06-25T10:51:25.794Z,51.62
2018-06-25T10:52:25.955Z,50.07
2018-06-25T10:53:26.039Z,51.68
2018-06-25T10:54:26.324Z,51.16
2018-06-25T10:55:26.479Z,49.92
2018-06-25T10:56:26.628Z,48.93
2018-06-25T10:57:26.855Z,46.42
2018-06-25T10:58:26.960Z,45.53
2018-06-25T10:59:27.203Z,47.64
2018-06-25T11:00:27.327Z,47.11
2018-06-25T11:01:27.518Z,48.06
2018-06-25T11:02:27.795Z,49.39
2018-06-25T11:03:27.802Z,49.10
2018-06-25T11:04:28.127Z,49.65
2018-06-25T11:05:28.220Z,50.40
2018-06-25T11:06:28.347Z,51.56
2018-06-25T11:07:28.612Z,51.59
2018-06-25T11:08:28.676Z,50.55
2018-06-25T11:09:28.800Z,50.29
2018-06-25T11:10:29.003Z,50.29
2018-06-25T11:13:10.228Z,48.44
2018-06-25T11:14:22.475Z,48.90
2018-06-25T11:16:18.407Z,48.81
2018-06-25T11:18:12.655Z,48.25
2018-06-25T11:19:11.457Z,46.58
2018-06-25T11:20:11.467Z,47.28
2018-06-25T11:21:11.592Z,47.16
2018-06-25T11:22:11.875Z,47.86
2018-06-25T11:23:12.459Z,47.57
2018-06-25T11:24:12.453Z,47.67
2018-06-25T11:25:12.520Z,48.22
2018-06-25T11:26:12.559Z,48.22
2018-06-25T11:27:12.860Z,49.85
2018-06-25T11:30:12.494Z,51.47
2018-06-25T11:31:13.795Z,51.59
2018-06-25T11:32:12.785Z,50.09
2018-06-25T11:33:12.160Z,49.82
2018-06-25T11:34:12.307Z,48.37
2018-06-25T11:35:12.575Z,47.69
2018-06-25T11:36:12.768Z,47.33
2018-06-25T11:37:12.937Z,46.77
2018-06-25T11:38:15.221Z,47.45
2018-06-25T11:39:14.158Z,45.80
2018-06-25T11:40:13.397Z,46.09
2018-06-25T11:42:56.699Z,47.11
2018-06-25T11:43:57.628Z,48.10
2018-06-25T11:44:57.159Z,48.10
2018-06-25T11:45:59.187Z,47.45
2018-06-25T11:46:56.857Z,46.60
2018-06-25T11:47:59.644Z,46.11
2018-06-25T11:48:55.860Z,45.84
2018-06-25T11:49:56.005Z,44.97
2018-06-25T11:50:56.245Z,44.17
2018-06-25T11:51:56.381Z,44.65
2018-06-25T11:52:56.618Z,44.92
2018-06-25T11:53:56.715Z,46.16
2018-06-25T11:54:56.934Z,45.65
2018-06-25T11:55:57.202Z,47.26
2018-06-25T11:56:57.344Z,48.03
2018-06-25T11:57:57.475Z,49.85
2018-06-25T11:58:57.696Z,50.79
2018-06-25T11:59:57.810Z,52.24
2018-06-25T12:00:58.011Z,52.70
2018-06-25T12:01:58.328Z,53.67
2018-06-25T12:02:58.509Z,53.86
2018-06-25T12:03:58.529Z,53.86
2018-06-25T12:04:58.749Z,53.67
2018-06-25T12:05:58.971Z,53.28
2018-06-25T12:06:59.160Z,52.24
2018-06-25T12:07:59.331Z,52.41
2018-06-25T12:08:59.515Z,52.51
2018-06-25T12:09:59.768Z,52.51
2018-06-25T12:10:59.872Z,52.08
2018-06-25T12:12:00.041Z,50.74
2018-06-25T12:13:00.294Z,51.28
2018-06-25T12:14:00.455Z,47.86
2018-06-25T12:15:00.512Z,46.33
2018-06-25T12:16:00.823Z,46.23
2018-06-25T12:17:00.983Z,46.45
2018-06-25T12:18:01.165Z,46.35
2018-06-25T12:19:01.343Z,46.33
2018-06-25T12:20:01.514Z,45.72
2018-06-25T12:21:01.742Z,45.61
2018-06-25T12:22:01.788Z,45.68
2018-06-25T12:23:01.995Z,45.97
2018-06-25T12:24:02.307Z,45.51
2018-06-25T12:25:02.381Z,43.86
2018-06-25T12:26:02.653Z,44.64
2018-06-25T12:27:02.802Z,44.05
2018-06-25T12:28:03.373Z,43.78
2018-06-25T12:31:07.399Z,43.40
2018-06-25T12:32:07.842Z,44.37
2018-06-25T12:33:07.796Z,44.09
2018-06-25T12:34:05.612Z,44.19
2018-06-25T12:35:05.876Z,44.95
2018-06-25T12:36:05.937Z,45.07
2018-06-25T12:37:06.217Z,43.82
2018-06-25T12:38:06.459Z,44.31
2018-06-25T12:39:06.747Z,42.99
2018-06-25T12:40:06.853Z,40.95
2018-06-25T12:41:08.110Z,41.46
2018-06-25T12:42:11.360Z,41.40
2018-06-25T12:44:00.792Z,40.42
2018-06-25T12:44:16.500Z,39.86
2018-06-25T12:46:18.259Z,39.02
2018-06-25T12:49:45.484Z,40.41
2018-06-25T12:50:46.126Z,40.39
2018-06-25T12:54:58.080Z,43.63
2018-06-25T12:56:23.862Z,44.58
2018-06-25T12:56:55.675Z,44.85
2018-06-25T12:58:05.929Z,45.14
2018-06-25T13:03:30.369Z,45.95
2018-06-25T13:04:53.837Z,45.75
2018-06-25T13:06:00.378Z,46.12
2018-06-25T13:06:18.915Z,46.02
2018-06-25T13:12:47.516Z,47.47
2018-06-25T13:16:05.774Z,45.39
2018-06-25T13:16:32.261Z,44.97
2018-06-25T13:17:13.512Z,43.26
2018-06-25T13:20:08.930Z,41.86
2018-06-25T13:21:08.630Z,41.19
2018-06-25T13:22:51.369Z,41.26
2018-06-25T13:23:07.929Z,42.60
2018-06-25T13:24:10.048Z,42.97
2018-06-25T13:25:06.859Z,42.80
2018-06-25T13:26:04.636Z,43.55
2018-06-25T13:27:04.611Z,44.21
2018-06-25T13:28:04.314Z,44.00
2018-06-25T13:29:05.312Z,44.17
2018-06-25T13:30:04.830Z,45.02
2018-06-25T13:31:05.145Z,45.87
2018-06-25T13:32:05.446Z,46.16
2018-06-25T13:33:05.969Z,46.16
2018-06-25T13:34:05.540Z,46.94
2018-06-25T13:35:05.581Z,46.33
2018-06-25T13:36:06.527Z,46.07
2018-06-25T13:37:06.963Z,45.75
2018-06-25T13:38:06.640Z,45.68
2018-06-25T13:39:06.661Z,47.33
2018-06-25T13:40:06.608Z,46.19
2018-06-25T13:41:07.024Z,45.26
2018-06-25T13:42:07.662Z,43.46
2018-06-25T13:43:10.212Z,42.11
2018-06-25T13:44:08.329Z,41.93
2018-06-25T13:45:07.680Z,41.34
2018-06-25T13:46:07.594Z,42.29
2018-06-25T13:47:08.040Z,42.58
2018-06-25T13:48:09.023Z,43.24
2018-06-25T13:49:08.706Z,43.59
2018-06-25T13:50:10.097Z,44.23
2018-06-25T13:51:08.887Z,45.65
2018-06-25T13:52:08.561Z,46.72
2018-06-25T13:53:09.273Z,48.44
2018-06-25T13:54:10.876Z,49.68
2018-06-25T13:55:10.219Z,49.97
2018-06-25T13:56:09.728Z,50.14
2018-06-25T13:57:10.014Z,50.43
2018-06-25T13:58:10.648Z,51.30
2018-06-25T13:59:10.576Z,50.62
2018-06-25T14:00:10.350Z,50.62
2018-06-25T14:01:10.826Z,50.55
2018-06-25T14:02:11.152Z,49.73
2018-06-25T14:03:11.633Z,48.95
2018-06-25T14:04:11.392Z,48.22
2018-06-25T14:05:11.663Z,48.05
2018-06-25T14:06:11.335Z,47.66
2018-06-25T14:07:13.707Z,47.38
2018-06-25T14:41:08.978Z,53.55
2018-06-25T14:42:25.233Z,53.67
2018-06-25T14:43:11.949Z,53.67
2018-06-25T14:44:12.254Z,53.41
2018-06-25T14:46:14.497Z,51.37
2018-06-25T14:48:34.459Z,51.56
2018-06-25T14:50:30.432Z,52.27
2018-06-25T14:51:26.452Z,52.95
2018-06-25T14:55:06.575Z,52.75
2018-06-25T14:56:03.108Z,52.17
2018-06-25T14:57:05.051Z,52.36
2018-06-25T20:05:18.930Z,72.25
2018-06-25T20:06:23.807Z,71.77
2018-06-25T20:08:24.359Z,72.73
2018-06-25T20:09:19.628Z,72.83
2018-06-25T20:10:19.735Z,72.25
2018-06-25T20:11:19.686Z,72.69
2018-06-25T20:12:20.194Z,72.89
2018-06-25T20:13:20.499Z,72.89
2018-06-25T20:14:20.366Z,73.27
2018-06-25T20:15:20.611Z,73.85
2018-06-25T20:16:20.621Z,74.04
2018-06-25T20:17:20.794Z,74.04
2018-06-25T20:18:20.821Z,74.13
2018-06-25T20:19:20.959Z,73.85
2018-06-25T20:20:21.560Z,75.00
2018-06-25T20:21:22.052Z,75.10
2018-06-25T20:22:22.113Z,74.62
2018-06-25T20:23:21.721Z,74.13
2018-06-25T20:24:22.136Z,74.33
2018-06-25T20:25:22.106Z,74.81
2018-06-25T20:26:22.181Z,73.94
2018-06-25T20:27:22.411Z,74.81
2018-06-25T20:28:22.738Z,74.77
2018-06-25T20:29:23.438Z,75.00
2018-06-25T20:30:23.981Z,75.25
2018-06-25T20:31:23.710Z,74.87
